Time;durP1;ratioP1;P1;durP2;ratioP2;P2;SDS_P1;SDS_P2;PMS_P1;PMS_P2;Temp;Humidity;BMP_temperature;BMP_pressure;BME280_temperature;BME280_humidity;BME280_pressure;Samples;Min_cycle;Max_cycle;Signal;HPM_P1;HPM_P2
2022/11/14 00:01:51;;;;;;;42.08;27.70;;;;;;;;;;5055983;28;20473;-64
2022/11/14 00:04:17;;;;;;;41.80;24.48;;;;;;;;;;5071785;28;20035;-66
2022/11/14 00:06:43;;;;;;;45.35;24.05;;;;;;;;;;5071544;28;20431;-64
2022/11/14 00:09:09;;;;;;;53.85;33.58;;;;;;;;;;5072011;28;20032;-65
2022/11/14 00:11:35;;;;;;;81.32;44.22;;;;;;;;;;5072349;28;20024;-64
2022/11/14 00:14:01;;;;;;;52.65;30.67;;;;;;;;;;5053967;28;20027;-65
2022/11/14 00:16:27;;;;;;;60.35;36.60;;;;;;;;;;5072242;28;20111;-64
2022/11/14 00:18:53;;;;;;;47.30;29.77;;;;;;;;;;5072656;28;20017;-64
2022/11/14 00:21:19;;;;;;;88.85;49.67;;;;;;;;;;5055797;28;20029;-65
2022/11/14 00:23:45;;;;;;;52.03;30.23;;;;;;;;;;5073069;28;20439;-64
2022/11/14 00:26:11;;;;;;;49.33;29.20;;;;;;;;;;5055586;28;20025;-64
2022/11/14 00:28:37;;;;;;;49.38;29.92;;;;;;;;;;5073097;28;20036;-64
2022/11/14 00:31:03;;;;;;;54.88;33.00;;;;;;;;;;5055409;28;20032;-64
2022/11/14 00:33:29;;;;;;;47.47;30.05;;;;;;;;;;5072461;28;20512;-65
2022/11/14 00:35:55;;;;;;;59.75;35.45;;;;;;;;;;5056091;28;20027;-64
2022/11/14 00:38:22;;;;;;;50.05;28.67;;;;;;;;;;5073279;28;20025;-64
2022/11/14 00:40:48;;;;;;;44.55;26.13;;;;;;;;;;5055851;28;20071;-64
2022/11/14 00:43:14;;;;;;;51.03;31.80;;;;;;;;;;5072603;28;20028;-64
2022/11/14 00:45:42;;;;;;;49.67;28.23;;;;;;;;;;5055400;28;20032;-65
2022/11/14 00:48:08;;;;;;;41.25;24.05;;;;;;;;;;5073253;28;20060;-65
2022/11/14 00:50:34;;;;;;;47.17;29.00;;;;;;;;;;5073375;28;20048;-66
2022/11/14 00:53:00;;;;;;;38.70;22.83;;;;;;;;;;5073325;28;20017;-65
2022/11/14 00:55:26;;;;;;;46.42;26.25;;;;;;;;;;5072437;28;20434;-63
2022/11/14 00:57:52;;;;;;;42.92;24.65;;;;;;;;;;5053918;28;20021;-64
2022/11/14 01:00:19;;;;;;;45.20;26.20;;;;;;;;;;5073254;28;20032;-64
2022/11/14 01:02:45;;;;;;;44.65;23.52;;;;;;;;;;5072566;28;20040;-65
2022/11/14 01:05:11;;;;;;;45.50;25.25;;;;;;;;;;5072075;28;20025;-65
2022/11/14 01:07:37;;;;;;;39.08;22.60;;;;;;;;;;5073013;28;20024;-65
2022/11/14 01:10:04;;;;;;;42.05;22.40;;;;;;;;;;5073060;28;20097;-65
2022/11/14 01:12:30;;;;;;;40.28;23.45;;;;;;;;;;5072145;28;20024;-64
2022/11/14 01:14:56;;;;;;;42.85;23.27;;;;;;;;;;5072405;28;20029;-64
2022/11/14 01:17:22;;;;;;;41.35;24.15;;;;;;;;;;5073003;28;20024;-64
2022/11/14 01:19:48;;;;;;;39.60;22.65;;;;;;;;;;5055164;28;20377;-65
2022/11/14 01:22:14;;;;;;;43.25;23.90;;;;;;;;;;5073078;28;20051;-64
2022/11/14 01:24:40;;;;;;;44.92;24.45;;;;;;;;;;5072158;28;20036;-64
2022/11/14 01:27:06;;;;;;;46.55;24.98;;;;;;;;;;5073400;28;20066;-65
2022/11/14 01:29:32;;;;;;;42.22;23.80;;;;;;;;;;5055185;28;20052;-65
2022/11/14 01:31:58;;;;;;;44.95;25.05;;;;;;;;;;5073261;28;20473;-65
2022/11/14 01:34:24;;;;;;;39.47;24.63;;;;;;;;;;5072859;28;20067;-65
2022/11/14 01:36:50;;;;;;;44.20;25.35;;;;;;;;;;5073356;28;20427;-64
2022/11/14 01:39:16;;;;;;;43.53;24.75;;;;;;;;;;5055882;28;20031;-65
2022/11/14 01:41:42;;;;;;;37.35;23.73;;;;;;;;;;5073893;28;20025;-64
2022/11/14 01:44:15;;;;;;;39.95;24.58;;;;;;;;;;5071941;28;20028;-64
2022/11/14 01:46:42;;;;;;;44.75;25.17;;;;;;;;;;5055016;28;20493;-64
2022/11/14 01:49:11;;;;;;;41.38;22.63;;;;;;;;;;5072665;28;20020;-65
2022/11/14 01:51:48;;;;;;;42.03;24.90;;;;;;;;;;5072943;28;20025;-66
2022/11/14 01:54:34;;;;;;;42.63;23.13;;;;;;;;;;5072059;28;20017;-64
2022/11/14 01:57:01;;;;;;;44.65;25.23;;;;;;;;;;5054763;28;20139;-64
2022/11/14 01:59:30;;;;;;;44.40;25.17;;;;;;;;;;5072600;28;20032;-64
2022/11/14 02:01:57;;;;;;;40.30;24.40;;;;;;;;;;5072812;28;20032;-65
2022/11/14 02:04:26;;;;;;;40.83;23.90;;;;;;;;;;5072133;28;20032;-64
2022/11/14 02:06:55;;;;;;;44.45;24.55;;;;;;;;;;5072486;28;20021;-65
2022/11/14 02:09:21;;;;;;;39.20;23.10;;;;;;;;;;5071618;28;20074;-65
2022/11/14 02:11:47;;;;;;;43.75;24.25;;;;;;;;;;5072472;28;20032;-64
2022/11/14 02:14:13;;;;;;;41.35;22.58;;;;;;;;;;5075273;28;20095;-64
2022/11/14 02:16:40;;;;;;;41.08;25.08;;;;;;;;;;5075920;28;20032;-64
2022/11/14 02:19:07;;;;;;;44.75;24.67;;;;;;;;;;5075722;28;20081;-64
2022/11/14 02:21:33;;;;;;;43.88;23.90;;;;;;;;;;5057930;28;20021;-65
2022/11/14 02:23:59;;;;;;;47.33;24.67;;;;;;;;;;5075033;28;20025;-64
2022/11/14 02:26:25;;;;;;;45.03;25.05;;;;;;;;;;5075864;28;20107;-64
2022/11/14 02:28:51;;;;;;;43.72;24.15;;;;;;;;;;5075620;28;20020;-64
2022/11/14 02:31:17;;;;;;;46.53;25.52;;;;;;;;;;5075659;28;20033;-64
2022/11/14 02:33:43;;;;;;;40.05;25.05;;;;;;;;;;5075044;28;20515;-64
2022/11/14 02:36:09;;;;;;;44.42;23.40;;;;;;;;;;5075513;28;20025;-65
2022/11/14 02:38:36;;;;;;;41.92;25.58;;;;;;;;;;5057857;28;20059;-64
2022/11/14 02:41:02;;;;;;;42.88;24.13;;;;;;;;;;5075594;28;20028;-65
2022/11/14 02:43:28;;;;;;;39.38;25.25;;;;;;;;;;5074877;28;20372;-65
2022/11/14 02:45:54;;;;;;;42.42;24.20;;;;;;;;;;5075503;28;20032;-65
2022/11/14 02:48:20;;;;;;;38.30;22.60;;;;;;;;;;5075356;28;20020;-64
2022/11/14 02:50:49;;;;;;;40.63;22.80;;;;;;;;;;5075238;28;20078;-65
2022/11/14 02:53:15;;;;;;;40.95;23.20;;;;;;;;;;5074116;28;20162;-65
2022/11/14 02:55:41;;;;;;;41.03;23.40;;;;;;;;;;5057268;28;20017;-65
2022/11/14 02:58:07;;;;;;;42.10;23.70;;;;;;;;;;5075318;28;20032;-64
2022/11/14 03:00:34;;;;;;;40.92;24.92;;;;;;;;;;5075217;28;20408;-64
2022/11/14 03:03:00;;;;;;;42.08;25.95;;;;;;;;;;5074940;28;20035;-64
2022/11/14 03:05:26;;;;;;;45.90;25.50;;;;;;;;;;5074548;28;20025;-65
2022/11/14 03:07:53;;;;;;;42.42;22.75;;;;;;;;;;5075145;28;20419;-64
2022/11/14 03:10:19;;;;;;;45.13;25.42;;;;;;;;;;5074793;28;20024;-64
2022/11/14 03:12:45;;;;;;;43.83;24.45;;;;;;;;;;5056897;28;20546;-65
2022/11/14 03:15:12;;;;;;;43.58;24.83;;;;;;;;;;5056151;28;20397;-65
2022/11/14 03:17:38;;;;;;;42.63;23.67;;;;;;;;;;5074883;28;20025;-64
2022/11/14 03:20:04;;;;;;;40.38;24.25;;;;;;;;;;5074498;28;20026;-65
2022/11/14 03:22:30;;;;;;;45.45;25.40;;;;;;;;;;5056742;28;20495;-64
2022/11/14 03:24:56;;;;;;;43.58;25.00;;;;;;;;;;5073318;28;20044;-64
2022/11/14 03:27:22;;;;;;;48.58;25.08;;;;;;;;;;5075088;28;20033;-64
2022/11/14 03:29:48;;;;;;;42.75;25.13;;;;;;;;;;5074349;28;20047;-64
2022/11/14 03:32:14;;;;;;;46.28;26.20;;;;;;;;;;5056541;28;20082;-64
2022/11/14 03:34:40;;;;;;;41.13;25.02;;;;;;;;;;5073442;28;20027;-64
2022/11/14 03:37:06;;;;;;;44.03;25.45;;;;;;;;;;5073613;28;20021;-64
2022/11/14 03:39:32;;;;;;;40.58;23.67;;;;;;;;;;5056371;28;20060;-65
2022/11/14 03:41:58;;;;;;;44.55;25.20;;;;;;;;;;5074185;28;20024;-65
2022/11/14 03:44:24;;;;;;;39.05;23.80;;;;;;;;;;5073348;28;20040;-64
2022/11/14 03:46:51;;;;;;;45.65;25.23;;;;;;;;;;5074256;28;20055;-64
2022/11/14 03:49:17;;;;;;;42.53;23.85;;;;;;;;;;5073963;28;20111;-64
2022/11/14 03:51:43;;;;;;;43.45;25.77;;;;;;;;;;5073965;28;20056;-64
2022/11/14 03:54:09;;;;;;;44.63;26.15;;;;;;;;;;5073272;28;20388;-65
2022/11/14 03:56:35;;;;;;;47.38;27.90;;;;;;;;;;5073798;28;20032;-64
2022/11/14 03:59:01;;;;;;;40.33;25.05;;;;;;;;;;5073956;28;20472;-64
2022/11/14 04:01:28;;;;;;;44.20;27.08;;;;;;;;;;5073834;28;20435;-64
2022/11/14 04:03:54;;;;;;;44.05;27.30;;;;;;;;;;5073138;28;20115;-64
2022/11/14 04:06:20;;;;;;;39.95;24.17;;;;;;;;;;5073790;28;20032;-63
2022/11/14 04:08:46;;;;;;;43.05;24.58;;;;;;;;;;5073895;28;20029;-65
2022/11/14 04:11:12;;;;;;;44.33;26.23;;;;;;;;;;5073852;28;20370;-63
2022/11/14 04:13:38;;;;;;;46.35;25.17;;;;;;;;;;5072583;28;20027;-64
2022/11/14 04:16:04;;;;;;;48.70;26.00;;;;;;;;;;5055831;28;20024;-65
2022/11/14 04:18:30;;;;;;;42.45;26.63;;;;;;;;;;5072840;28;20397;-64
2022/11/14 04:20:56;;;;;;;46.13;25.98;;;;;;;;;;5055984;28;20024;-65
2022/11/14 04:23:22;;;;;;;43.63;25.30;;;;;;;;;;5072695;28;20473;-64
2022/11/14 04:25:48;;;;;;;46.28;26.08;;;;;;;;;;5055409;28;20523;-64
2022/11/14 04:28:14;;;;;;;44.30;26.67;;;;;;;;;;5073190;28;20078;-64
2022/11/14 04:30:43;;;;;;;47.45;27.58;;;;;;;;;;5073078;28;20439;-64
2022/11/14 04:33:09;;;;;;;40.83;24.13;;;;;;;;;;5072490;28;20491;-65
2022/11/14 04:35:35;;;;;;;43.67;25.67;;;;;;;;;;5072329;28;20025;-65
2022/11/14 04:38:02;;;;;;;39.92;25.50;;;;;;;;;;5055179;28;20051;-65
2022/11/14 04:40:28;;;;;;;47.75;25.00;;;;;;;;;;5055356;28;20021;-64
2022/11/14 04:42:54;;;;;;;49.95;28.20;;;;;;;;;;5055424;28;20056;-63
2022/11/14 04:45:20;;;;;;;42.90;24.80;;;;;;;;;;5072662;28;20091;-65
2022/11/14 04:47:46;;;;;;;40.85;24.52;;;;;;;;;;5072920;28;20046;-64
2022/11/14 04:50:12;;;;;;;44.70;26.25;;;;;;;;;;5072845;28;20491;-65
2022/11/14 04:52:37;;;;;;;45.88;28.48;;;;;;;;;;5072580;28;20017;-64
2022/11/14 04:55:04;;;;;;;42.40;26.48;;;;;;;;;;5071801;28;20027;-64
2022/11/14 04:57:30;;;;;;;40.47;24.20;;;;;;;;;;5072830;28;20023;-65
2022/11/14 04:59:56;;;;;;;39.85;24.33;;;;;;;;;;5072673;28;20020;-64
2022/11/14 05:02:22;;;;;;;46.25;26.17;;;;;;;;;;5054546;28;20024;-65
2022/11/14 05:04:48;;;;;;;44.58;26.25;;;;;;;;;;5071659;28;20108;-64
2022/11/14 05:07:14;;;;;;;44.50;25.38;;;;;;;;;;5054902;28;20021;-64
2022/11/14 05:09:40;;;;;;;46.35;25.70;;;;;;;;;;5055061;28;20025;-64
2022/11/14 05:12:06;;;;;;;41.63;25.88;;;;;;;;;;5072616;28;20021;-64
2022/11/14 05:14:32;;;;;;;48.10;27.13;;;;;;;;;;5053996;28;20020;-65
2022/11/14 05:16:58;;;;;;;41.55;25.50;;;;;;;;;;5054485;28;20024;-65
2022/11/14 05:19:24;;;;;;;45.47;25.98;;;;;;;;;;5054904;28;20058;-65
2022/11/14 05:21:50;;;;;;;49.83;27.80;;;;;;;;;;5072613;28;20048;-64
2022/11/14 05:24:18;;;;;;;47.35;26.60;;;;;;;;;;5071888;28;20552;-63
2022/11/14 05:26:44;;;;;;;47.10;25.27;;;;;;;;;;5054819;28;20107;-64
2022/11/14 05:29:10;;;;;;;44.67;26.73;;;;;;;;;;5073110;28;20066;-65
2022/11/14 05:31:36;;;;;;;42.08;25.17;;;;;;;;;;5072339;28;20033;-63
2022/11/14 05:34:02;;;;;;;41.38;25.02;;;;;;;;;;5071701;28;20033;-64
2022/11/14 05:36:28;;;;;;;45.38;26.60;;;;;;;;;;5072383;28;20720;-65
2022/11/14 05:38:54;;;;;;;47.90;26.55;;;;;;;;;;5071961;28;20055;-63
2022/11/14 05:41:20;;;;;;;48.33;27.60;;;;;;;;;;5072471;28;20097;-65
2022/11/14 05:43:46;;;;;;;49.67;26.90;;;;;;;;;;5070860;28;20028;-63
2022/11/14 05:46:13;;;;;;;47.45;28.52;;;;;;;;;;5054601;28;20025;-64
2022/11/14 05:48:39;;;;;;;42.03;26.20;;;;;;;;;;5057837;28;20111;-64
2022/11/14 05:51:05;;;;;;;43.47;25.02;;;;;;;;;;5076226;28;20074;-64
2022/11/14 05:53:32;;;;;;;48.70;28.00;;;;;;;;;;5075815;28;20349;-63
2022/11/14 05:56:03;;;;;;;40.53;25.10;;;;;;;;;;5076487;28;20537;-63
2022/11/14 05:58:30;;;;;;;41.30;26.67;;;;;;;;;;5076693;28;20028;-63
2022/11/14 06:01:06;;;;;;;47.03;26.25;;;;;;;;;;5076757;28;20032;-63
2022/11/14 06:03:37;;;;;;;42.75;25.05;;;;;;;;;;5095601;22;20045;-68
2022/11/14 06:06:05;;;;;;;44.72;25.35;;;;;;;;;;5036149;28;20120;-69
2022/11/14 06:08:31;;;;;;;39.85;25.27;;;;;;;;;;5036195;28;20021;-66
2022/11/14 06:11:01;;;;;;;39.95;26.38;;;;;;;;;;5053575;28;20033;-67
2022/11/14 06:13:27;;;;;;;39.30;25.27;;;;;;;;;;5035159;28;20079;-68
2022/11/14 06:15:53;;;;;;;42.03;25.75;;;;;;;;;;5053709;28;20040;-68
2022/11/14 06:18:19;;;;;;;43.72;26.15;;;;;;;;;;5036058;28;20029;-67
2022/11/14 06:20:45;;;;;;;43.00;25.60;;;;;;;;;;5035738;28;20025;-67
2022/11/14 06:23:11;;;;;;;41.72;25.00;;;;;;;;;;5052998;28;20068;-67
2022/11/14 06:25:37;;;;;;;45.78;26.33;;;;;;;;;;5053700;28;20027;-65
2022/11/14 06:28:03;;;;;;;40.50;24.02;;;;;;;;;;5035484;28;20024;-66
2022/11/14 06:30:29;;;;;;;37.83;24.92;;;;;;;;;;5035276;28;20099;-67
2022/11/14 06:32:58;;;;;;;42.08;26.02;;;;;;;;;;5053187;28;20021;-65
2022/11/14 06:35:25;;;;;;;39.92;25.80;;;;;;;;;;5052640;28;20025;-69
2022/11/14 06:37:51;;;;;;;38.80;24.35;;;;;;;;;;5053168;28;20033;-68
2022/11/14 06:40:17;;;;;;;39.13;23.83;;;;;;;;;;5035491;28;20024;-68
2022/11/14 06:42:43;;;;;;;40.30;25.25;;;;;;;;;;5053402;28;20393;-68
2022/11/14 06:45:09;;;;;;;39.15;26.05;;;;;;;;;;5052862;28;20029;-68
2022/11/14 06:47:35;;;;;;;38.85;23.70;;;;;;;;;;5053384;28;20025;-68
2022/11/14 06:50:01;;;;;;;41.53;24.98;;;;;;;;;;5035542;28;20036;-67
2022/11/14 06:52:27;;;;;;;40.85;24.98;;;;;;;;;;5053224;28;20021;-67
2022/11/14 06:54:53;;;;;;;42.92;24.27;;;;;;;;;;5034342;28;20027;-69
2022/11/14 06:57:19;;;;;;;40.75;24.52;;;;;;;;;;5028591;28;20033;-65
2022/11/14 06:59:46;;;;;;;42.10;24.63;;;;;;;;;;5050780;28;20405;-68
2022/11/14 07:02:13;;;;;;;41.83;25.03;;;;;;;;;;5035074;28;20045;-67
2022/11/14 07:04:39;;;;;;;44.33;23.33;;;;;;;;;;5044119;28;20033;-68
2022/11/14 07:07:05;;;;;;;39.10;24.40;;;;;;;;;;5015277;28;20026;-68
2022/11/14 07:09:31;;;;;;;43.97;24.95;;;;;;;;;;5031048;28;20026;-66
2022/11/14 07:11:57;;;;;;;41.53;23.05;;;;;;;;;;5033402;28;20021;-66
2022/11/14 07:14:23;;;;;;;37.13;21.88;;;;;;;;;;5051133;28;20021;-65
2022/11/14 07:16:49;;;;;;;40.30;25.92;;;;;;;;;;5053311;28;20017;-65
2022/11/14 07:19:15;;;;;;;39.78;23.83;;;;;;;;;;5052473;28;20108;-67
2022/11/14 07:21:41;;;;;;;51.15;24.63;;;;;;;;;;5052446;28;20017;-68
2022/11/14 07:24:07;;;;;;;40.53;24.50;;;;;;;;;;5051974;28;20075;-67
2022/11/14 07:26:33;;;;;;;43.17;23.48;;;;;;;;;;5052693;28;20032;-69
2022/11/14 07:28:59;;;;;;;41.60;23.40;;;;;;;;;;5052337;28;20029;-69
2022/11/14 07:31:25;;;;;;;38.78;23.23;;;;;;;;;;5034357;28;20025;-68
2022/11/14 07:33:51;;;;;;;35.13;22.63;;;;;;;;;;5031972;28;20037;-69
2022/11/14 07:36:17;;;;;;;34.83;21.88;;;;;;;;;;5032792;28;20018;-69
2022/11/14 07:38:43;;;;;;;39.78;24.08;;;;;;;;;;5032043;28;20033;-65
2022/11/14 07:41:09;;;;;;;34.67;22.85;;;;;;;;;;5031932;28;20498;-68
2022/11/14 07:43:36;;;;;;;32.92;21.52;;;;;;;;;;5031675;28;20030;-67
2022/11/14 07:46:06;;;;;;;40.53;22.98;;;;;;;;;;5033063;28;20026;-66
2022/11/14 07:48:33;;;;;;;37.15;23.05;;;;;;;;;;5032097;28;20091;-68
2022/11/14 07:50:59;;;;;;;41.78;22.38;;;;;;;;;;5032097;28;20034;-67
2022/11/14 07:53:25;;;;;;;36.78;22.52;;;;;;;;;;5031398;28;20043;-65
2022/11/14 07:55:52;;;;;;;33.90;21.60;;;;;;;;;;5034189;28;20014;-67
2022/11/14 07:58:18;;;;;;;35.88;20.50;;;;;;;;;;5051778;28;20032;-70
2022/11/14 08:00:44;;;;;;;35.22;22.00;;;;;;;;;;5051645;28;20416;-69
2022/11/14 08:03:10;;;;;;;37.42;23.02;;;;;;;;;;5050794;28;20131;-70
2022/11/14 08:05:36;;;;;;;34.25;20.60;;;;;;;;;;5033667;28;20052;-70
2022/11/14 08:08:02;;;;;;;32.83;22.67;;;;;;;;;;5049995;28;20429;-69
2022/11/14 08:10:28;;;;;;;35.50;21.30;;;;;;;;;;5051328;28;20028;-69
2022/11/14 08:13:01;;;;;;;37.20;22.00;;;;;;;;;;5051367;28;20405;-69
2022/11/14 08:15:28;;;;;;;33.25;20.42;;;;;;;;;;5051464;28;20481;-67
2022/11/14 08:17:57;;;;;;;34.42;22.50;;;;;;;;;;5052399;28;20587;-68
2022/11/14 08:20:24;;;;;;;32.35;20.08;;;;;;;;;;5051696;28;20025;-68
2022/11/14 08:22:50;;;;;;;33.65;21.98;;;;;;;;;;5051304;28;20045;-65
2022/11/14 08:25:16;;;;;;;33.00;21.02;;;;;;;;;;5050879;28;20098;-66
2022/11/14 08:27:42;;;;;;;33.35;20.15;;;;;;;;;;5050739;28;20028;-66
2022/11/14 08:30:08;;;;;;;30.92;20.10;;;;;;;;;;5033320;28;20040;-66
2022/11/14 08:32:34;;;;;;;32.78;20.98;;;;;;;;;;5051157;28;20480;-65
2022/11/14 08:35:00;;;;;;;31.52;20.17;;;;;;;;;;5050435;28;20028;-67
2022/11/14 08:37:26;;;;;;;32.67;21.00;;;;;;;;;;5033232;28;20124;-68
2022/11/14 08:39:52;;;;;;;33.13;20.67;;;;;;;;;;5033232;28;20063;-66
2022/11/14 08:42:18;;;;;;;33.45;20.02;;;;;;;;;;5033000;28;20036;-66
2022/11/14 08:44:44;;;;;;;30.60;19.27;;;;;;;;;;5050506;28;20033;-68
2022/11/14 08:47:10;;;;;;;32.10;20.48;;;;;;;;;;5050703;28;20028;-66
2022/11/14 08:49:36;;;;;;;32.83;20.73;;;;;;;;;;5032961;28;20116;-66
2022/11/14 08:52:02;;;;;;;30.50;18.58;;;;;;;;;;5050694;28;20047;-67
2022/11/14 08:54:28;;;;;;;34.42;20.02;;;;;;;;;;5049607;28;20052;-63
2022/11/14 08:56:54;;;;;;;28.80;17.73;;;;;;;;;;5050269;28;20055;-65
2022/11/14 08:59:20;;;;;;;30.25;19.08;;;;;;;;;;5050095;28;20108;-63
2022/11/14 09:01:46;;;;;;;30.65;19.10;;;;;;;;;;5049881;28;20021;-61
2022/11/14 09:04:12;;;;;;;29.88;18.63;;;;;;;;;;5046505;28;20084;-62
2022/11/14 09:06:38;;;;;;;29.38;19.60;;;;;;;;;;5050123;28;20032;-61
2022/11/14 09:09:05;;;;;;;31.35;19.52;;;;;;;;;;5050088;28;20029;-62
2022/11/14 09:11:31;;;;;;;26.50;18.38;;;;;;;;;;5050314;28;20112;-62
2022/11/14 09:13:57;;;;;;;28.08;18.92;;;;;;;;;;5049350;28;20052;-61
2022/11/14 09:16:23;;;;;;;28.10;19.08;;;;;;;;;;5050086;28;20025;-61
2022/11/14 09:18:49;;;;;;;30.10;19.05;;;;;;;;;;5048980;28;20100;-61
2022/11/14 09:21:15;;;;;;;27.83;18.70;;;;;;;;;;5049959;28;20108;-61
2022/11/14 09:23:41;;;;;;;29.95;18.35;;;;;;;;;;5048782;28;20036;-59
2022/11/14 09:26:08;;;;;;;29.88;19.17;;;;;;;;;;5053858;28;20049;-61
2022/11/14 09:28:35;;;;;;;28.60;18.58;;;;;;;;;;5054146;28;20128;-61
2022/11/14 09:31:05;;;;;;;30.27;18.27;;;;;;;;;;5050604;28;20029;-61
2022/11/14 09:33:32;;;;;;;28.40;18.10;;;;;;;;;;5049334;28;20075;-61
2022/11/14 09:36:05;;;;;;;29.15;18.67;;;;;;;;;;5049926;28;20478;-61
2022/11/14 09:38:31;;;;;;;30.00;19.50;;;;;;;;;;5050309;28;20028;-61
2022/11/14 09:41:16;;;;;;;27.65;18.55;;;;;;;;;;5049770;28;20051;-60
2022/11/14 09:43:42;;;;;;;29.98;18.23;;;;;;;;;;5048992;28;20036;-61
2022/11/14 09:46:37;;;;;;;27.05;17.63;;;;;;;;;;5032121;28;20074;-64
2022/11/14 09:49:03;;;;;;;27.42;18.23;;;;;;;;;;5023470;28;20116;-65
2022/11/14 09:51:35;;;;;;;28.30;19.90;;;;;;;;;;5049749;28;20036;-64
2022/11/14 09:54:01;;;;;;;26.92;18.23;;;;;;;;;;5049041;28;20031;-66
2022/11/14 09:56:28;;;;;;;25.73;17.23;;;;;;;;;;5049887;28;20025;-64
2022/11/14 09:58:55;;;;;;;27.10;17.77;;;;;;;;;;5049992;28;20021;-64
2022/11/14 10:01:57;;;;;;;26.70;18.08;;;;;;;;;;5031914;28;20440;-62
2022/11/14 10:04:38;;;;;;;30.05;17.27;;;;;;;;;;4987345;28;20045;-66
2022/11/14 10:07:18;;;;;;;26.92;18.10;;;;;;;;;;5043236;28;20044;-64
2022/11/14 10:09:54;;;;;;;27.20;18.20;;;;;;;;;;5050069;28;20115;-64
2022/11/14 10:12:23;;;;;;;30.63;18.75;;;;;;;;;;5033800;28;20021;-63
2022/11/14 10:14:49;;;;;;;28.80;18.33;;;;;;;;;;5053657;28;20024;-63
2022/11/14 10:17:33;;;;;;;28.13;18.52;;;;;;;;;;5033817;28;20021;-63
2022/11/14 10:20:17;;;;;;;28.65;19.10;;;;;;;;;;5050496;28;20430;-65
2022/11/14 10:22:43;;;;;;;29.40;19.13;;;;;;;;;;5051112;28;20025;-64
2022/11/14 10:25:15;;;;;;;29.67;18.60;;;;;;;;;;5032695;28;20025;-64
2022/11/14 10:27:57;;;;;;;26.33;18.30;;;;;;;;;;5032703;28;20029;-64
2022/11/14 10:30:23;;;;;;;28.73;18.13;;;;;;;;;;5050346;28;20464;-64
2022/11/14 10:32:54;;;;;;;26.95;17.15;;;;;;;;;;5049830;28;20475;-65
2022/11/14 10:35:25;;;;;;;25.95;18.42;;;;;;;;;;5051665;28;20096;-67
2022/11/14 10:38:03;;;;;;;27.45;18.42;;;;;;;;;;5053273;28;20044;-65
2022/11/14 10:40:39;;;;;;;25.15;17.23;;;;;;;;;;5053142;28;20115;-65
2022/11/14 10:43:25;;;;;;;24.40;17.20;;;;;;;;;;5034737;28;20144;-65
2022/11/14 10:46:12;;;;;;;24.35;17.95;;;;;;;;;;5052473;28;20051;-65
2022/11/14 10:48:43;;;;;;;25.75;19.23;;;;;;;;;;5053028;28;20025;-65
2022/11/14 10:51:09;;;;;;;25.30;17.63;;;;;;;;;;5052902;28;20031;-64
2022/11/14 10:53:45;;;;;;;23.77;19.17;;;;;;;;;;5052036;28;20096;-64
2022/11/14 10:56:12;;;;;;;25.77;19.30;;;;;;;;;;5044557;28;20047;-66
2022/11/14 10:58:38;;;;;;;25.70;20.33;;;;;;;;;;5035134;28;20489;-66
2022/11/14 11:01:31;;;;;;;24.75;19.98;;;;;;;;;;5052736;28;20503;-65
2022/11/14 11:03:57;;;;;;;24.13;20.00;;;;;;;;;;5048888;28;20040;-63
2022/11/14 11:06:27;;;;;;;22.95;19.17;;;;;;;;;;5052628;28;20029;-63
2022/11/14 11:11:38;;;;;;;23.40;19.15;;;;;;;;;;5052713;28;20412;-67
2022/11/14 11:14:05;;;;;;;25.00;20.65;;;;;;;;;;5051846;28;20079;-66
2022/11/14 11:16:31;;;;;;;23.02;19.13;;;;;;;;;;5052497;28;20049;-65
2022/11/14 11:19:22;;;;;;;22.80;19.55;;;;;;;;;;5052265;28;20103;-66
2022/11/14 11:21:49;;;;;;;22.42;19.58;;;;;;;;;;5052193;28;20028;-66
2022/11/14 11:24:35;;;;;;;23.95;19.30;;;;;;;;;;5051642;28;20112;-66
2022/11/14 11:27:19;;;;;;;25.52;21.00;;;;;;;;;;5052149;28;20028;-64
2022/11/14 11:30:03;;;;;;;23.50;19.77;;;;;;;;;;5051757;28;20024;-64
2022/11/14 11:32:29;;;;;;;23.38;20.45;;;;;;;;;;5052204;28;20100;-65
2022/11/14 11:34:56;;;;;;;22.95;19.85;;;;;;;;;;5033649;28;20021;-64
2022/11/14 11:37:33;;;;;;;23.67;20.02;;;;;;;;;;5051610;28;20442;-66
2022/11/14 11:40:01;;;;;;;23.08;19.92;;;;;;;;;;5052027;28;20116;-64
2022/11/14 11:42:43;;;;;;;23.27;20.70;;;;;;;;;;5051994;28;20025;-65
2022/11/14 11:45:16;;;;;;;24.27;20.17;;;;;;;;;;5050952;28;20555;-68
2022/11/14 11:47:46;;;;;;;24.27;20.88;;;;;;;;;;5034022;28;20035;-64
2022/11/14 11:50:17;;;;;;;23.05;19.67;;;;;;;;;;5033785;28;20043;-66
2022/11/14 11:52:59;;;;;;;22.65;19.42;;;;;;;;;;5051773;28;20083;-67
2022/11/14 11:55:26;;;;;;;22.80;19.13;;;;;;;;;;5055758;28;20048;-65
2022/11/14 11:58:06;;;;;;;23.92;18.92;;;;;;;;;;5070406;28;20024;-65
2022/11/14 12:00:32;;;;;;;22.63;18.50;;;;;;;;;;5054483;28;20025;-66
2022/11/14 12:02:59;;;;;;;23.48;19.17;;;;;;;;;;5086612;22;20037;-66
2022/11/14 12:05:40;;;;;;;22.20;18.85;;;;;;;;;;5052581;28;20024;-66
2022/11/14 12:08:10;;;;;;;21.10;17.95;;;;;;;;;;5052922;28;20025;-66
2022/11/14 12:10:38;;;;;;;22.25;19.80;;;;;;;;;;5052745;28;20025;-64
2022/11/14 12:13:19;;;;;;;22.88;18.98;;;;;;;;;;5052363;28;20028;-66
2022/11/14 12:16:04;;;;;;;24.20;18.40;;;;;;;;;;5035217;28;20504;-67
2022/11/14 12:18:34;;;;;;;22.42;18.95;;;;;;;;;;5034692;28;20676;-65
2022/11/14 12:21:20;;;;;;;21.42;18.23;;;;;;;;;;5035013;28;20341;-67
2022/11/14 12:23:52;;;;;;;20.83;18.52;;;;;;;;;;5033842;28;20052;-66
2022/11/14 12:26:21;;;;;;;21.45;17.65;;;;;;;;;;5052750;28;20060;-67
2022/11/14 12:28:59;;;;;;;22.17;18.45;;;;;;;;;;5034555;28;20029;-67
2022/11/14 12:31:28;;;;;;;20.83;17.08;;;;;;;;;;5052403;28;20025;-67
2022/11/14 12:33:59;;;;;;;21.08;17.83;;;;;;;;;;5051764;28;20389;-67
2022/11/14 12:36:30;;;;;;;21.92;18.15;;;;;;;;;;5034417;28;20013;-67
2022/11/14 12:38:56;;;;;;;20.42;17.30;;;;;;;;;;5052424;28;20043;-66
2022/11/14 12:41:27;;;;;;;22.08;18.65;;;;;;;;;;5052702;28;20029;-67
2022/11/14 12:44:14;;;;;;;23.02;18.42;;;;;;;;;;5034050;28;20102;-68
2022/11/14 12:46:58;;;;;;;21.08;18.27;;;;;;;;;;5052602;28;20059;-66
2022/11/14 12:49:48;;;;;;;21.30;18.70;;;;;;;;;;5052255;28;20044;-64
2022/11/14 12:52:33;;;;;;;21.45;18.13;;;;;;;;;;5042362;28;20063;-66
2022/11/14 12:54:59;;;;;;;22.30;18.58;;;;;;;;;;5051934;28;20049;-66
2022/11/14 12:57:46;;;;;;;23.10;18.92;;;;;;;;;;5050712;28;20028;-67
2022/11/14 13:00:13;;;;;;;21.48;18.27;;;;;;;;;;5052167;28;20076;-68
2022/11/14 13:02:48;;;;;;;23.23;18.08;;;;;;;;;;5053114;28;20033;-68
2022/11/14 13:05:30;;;;;;;21.27;18.50;;;;;;;;;;5034494;28;20576;-67
2022/11/14 13:07:56;;;;;;;20.98;18.55;;;;;;;;;;5052444;28;20389;-66
2022/11/14 13:10:26;;;;;;;21.65;17.67;;;;;;;;;;5052240;28;20025;-67
2022/11/14 13:24:05;;;;;;;22.23;17.95;;;;;;;;;;5051565;28;20059;-68
2022/11/14 13:26:31;;;;;;;21.58;18.48;;;;;;;;;;5051880;28;20039;-67
2022/11/14 13:28:58;;;;;;;22.40;18.17;;;;;;;;;;5052100;28;20105;-67
2022/11/14 13:31:37;;;;;;;23.48;19.00;;;;;;;;;;5051237;28;20017;-66
2022/11/14 13:34:21;;;;;;;22.63;18.13;;;;;;;;;;5050572;28;20025;-65
2022/11/14 13:36:58;;;;;;;24.60;21.42;;;;;;;;;;5034555;28;20025;-67
2022/11/14 13:39:27;;;;;;;25.80;18.33;;;;;;;;;;5051864;28;20060;-66
2022/11/14 13:41:57;;;;;;;20.55;17.35;;;;;;;;;;5052007;28;20473;-66
2022/11/14 13:44:35;;;;;;;23.00;19.38;;;;;;;;;;5050315;28;20461;-65
2022/11/14 13:47:00;;;;;;;22.63;18.45;;;;;;;;;;5051950;28;20075;-66
2022/11/14 13:49:47;;;;;;;32.85;27.17;;;;;;;;;;5033558;28;20029;-67
2022/11/14 13:52:13;;;;;;;27.60;22.10;;;;;;;;;;5051545;28;20029;-67
2022/11/14 13:54:49;;;;;;;25.20;22.08;;;;;;;;;;5050540;28;20029;-66
2022/11/14 13:57:25;;;;;;;24.02;19.70;;;;;;;;;;5033255;28;20473;-66
2022/11/14 13:59:51;;;;;;;22.38;17.48;;;;;;;;;;5051154;28;20029;-66
2022/11/14 14:02:23;;;;;;;24.85;20.75;;;;;;;;;;5048789;28;20033;-67
2022/11/14 14:04:52;;;;;;;24.13;19.02;;;;;;;;;;5031530;28;20100;-63
2022/11/14 14:07:23;;;;;;;22.35;17.90;;;;;;;;;;5032119;28;20021;-66
2022/11/14 14:09:52;;;;;;;24.45;19.00;;;;;;;;;;5017640;28;20025;-67
2022/11/14 14:12:34;;;;;;;25.55;19.45;;;;;;;;;;5035537;28;20022;-67
2022/11/14 14:15:00;;;;;;;22.35;17.02;;;;;;;;;;5034724;28;20083;-67
2022/11/14 14:17:36;;;;;;;21.23;17.27;;;;;;;;;;5035825;28;20022;-67
2022/11/14 14:20:17;;;;;;;22.15;17.10;;;;;;;;;;5017914;28;20507;-66
2022/11/14 14:22:55;;;;;;;24.17;20.20;;;;;;;;;;5035350;28;20440;-68
2022/11/14 14:25:26;;;;;;;21.75;17.50;;;;;;;;;;5017146;28;20033;-67
2022/11/14 14:27:58;;;;;;;25.73;19.92;;;;;;;;;;5018216;28;20042;-65
2022/11/14 14:30:24;;;;;;;30.63;25.02;;;;;;;;;;5017756;28;20025;-66
2022/11/14 14:33:08;;;;;;;23.20;18.80;;;;;;;;;;5017398;28;20026;-65
2022/11/14 14:35:36;;;;;;;23.73;19.88;;;;;;;;;;5035865;28;20025;-65
2022/11/14 14:38:02;;;;;;;24.23;18.85;;;;;;;;;;5035383;28;20370;-66
2022/11/14 14:40:34;;;;;;;25.77;18.75;;;;;;;;;;5018781;28;20040;-66